sensor_id;sensor_type;location;lat;lon;timestamp;temperature;humidity
34833;DHT22;55941;50.800;4.342;2022-12-20T00:01:00;13.50;99.90
34833;DHT22;55941;50.800;4.342;2022-12-20T00:03:31;13.50;99.90
34833;DHT22;55941;50.800;4.342;2022-12-20T00:05:57;13.50;99.90
34833;DHT22;55941;50.800;4.342;2022-12-20T00:08:23;13.60;99.90
34833;DHT22;55941;50.800;4.342;2022-12-20T00:10:48;13.50;99.90
34833;DHT22;55941;50.800;4.342;2022-12-20T00:13:14;13.40;99.90
34833;DHT22;55941;50.800;4.342;2022-12-20T00:15:40;13.30;99.90
34833;DHT22;55941;50.800;4.342;2022-12-20T00:18:05;13.30;99.90
34833;DHT22;55941;50.800;4.342;2022-12-20T00:20:31;13.30;99.90
34833;DHT22;55941;50.800;4.342;2022-12-20T00:22:57;13.30;99.90
34833;DHT22;55941;50.800;4.342;2022-12-20T00:25:22;13.20;99.90
34833;DHT22;55941;50.800;4.342;2022-12-20T00:27:49;13.30;99.90
34833;DHT22;55941;50.800;4.342;2022-12-20T00:30:15;13.30;99.90
34833;DHT22;55941;50.800;4.342;2022-12-20T00:32:43;13.20;99.90
34833;DHT22;55941;50.800;4.342;2022-12-20T00:35:09;13.20;99.90
34833;DHT22;55941;50.800;4.342;2022-12-20T00:37:35;13.30;99.90
34833;DHT22;55941;50.800;4.342;2022-12-20T00:40:02;13.30;99.90
34833;DHT22;55941;50.800;4.342;2022-12-20T00:42:29;13.20;99.90
34833;DHT22;55941;50.800;4.342;2022-12-20T00:44:55;13.30;99.90
34833;DHT22;55941;50.800;4.342;2022-12-20T00:47:21;13.30;99.90
34833;DHT22;55941;50.800;4.342;2022-12-20T00:49:47;13.30;99.90
34833;DHT22;55941;50.800;4.342;2022-12-20T00:52:14;13.40;99.90
34833;DHT22;55941;50.800;4.342;2022-12-20T00:54:40;13.40;99.90
34833;DHT22;55941;50.800;4.342;2022-12-20T00:57:05;13.30;99.90
34833;DHT22;55941;50.800;4.342;2022-12-20T00:59:32;13.30;99.90
34833;DHT22;55941;50.800;4.342;2022-12-20T01:01:58;13.30;99.90
34833;DHT22;55941;50.800;4.342;2022-12-20T01:04:24;13.30;99.90
34833;DHT22;55941;50.800;4.342;2022-12-20T01:06:49;13.30;99.90
34833;DHT22;55941;50.800;4.342;2022-12-20T01:09:15;13.20;99.90
34833;DHT22;55941;50.800;4.342;2022-12-20T01:11:40;13.30;99.90
34833;DHT22;55941;50.800;4.342;2022-12-20T01:14:10;13.30;99.90
34833;DHT22;55941;50.800;4.342;2022-12-20T01:16:42;13.30;99.90
34833;DHT22;55941;50.800;4.342;2022-12-20T01:19:10;13.30;99.90
34833;DHT22;55941;50.800;4.342;2022-12-20T01:21:37;13.30;99.90
34833;DHT22;55941;50.800;4.342;2022-12-20T01:24:15;13.30;99.90
34833;DHT22;55941;50.800;4.342;2022-12-20T01:26:41;13.10;99.90
34833;DHT22;55941;50.800;4.342;2022-12-20T01:29:07;13.10;99.90
34833;DHT22;55941;50.800;4.342;2022-12-20T01:31:35;13.10;99.90
34833;DHT22;55941;50.800;4.342;2022-12-20T01:34:01;13.10;99.90
34833;DHT22;55941;50.800;4.342;2022-12-20T01:36:29;13.10;99.90
34833;DHT22;55941;50.800;4.342;2022-12-20T01:39:00;13.00;99.90
34833;DHT22;55941;50.800;4.342;2022-12-20T01:41:28;13.00;99.90
34833;DHT22;55941;50.800;4.342;2022-12-20T01:43:56;12.90;99.90
34833;DHT22;55941;50.800;4.342;2022-12-20T01:46:24;13.10;99.90
34833;DHT22;55941;50.800;4.342;2022-12-20T01:49:05;12.90;99.90
34833;DHT22;55941;50.800;4.342;2022-12-20T01:51:36;12.90;99.90
34833;DHT22;55941;50.800;4.342;2022-12-20T01:54:11;12.90;99.90
34833;DHT22;55941;50.800;4.342;2022-12-20T01:56:39;13.00;99.90
34833;DHT22;55941;50.800;4.342;2022-12-20T01:59:07;12.80;99.90
34833;DHT22;55941;50.800;4.342;2022-12-20T02:01:33;12.80;99.90
34833;DHT22;55941;50.800;4.342;2022-12-20T02:03:59;12.70;99.90
34833;DHT22;55941;50.800;4.342;2022-12-20T02:06:25;12.70;99.90
34833;DHT22;55941;50.800;4.342;2022-12-20T02:08:55;12.60;99.90
34833;DHT22;55941;50.800;4.342;2022-12-20T02:16:56;12.80;99.90
34833;DHT22;55941;50.800;4.342;2022-12-20T02:22:28;12.80;99.90
34833;DHT22;55941;50.800;4.342;2022-12-20T02:25:17;12.80;99.90
34833;DHT22;55941;50.800;4.342;2022-12-20T02:30:33;12.80;99.90
34833;DHT22;55941;50.800;4.342;2022-12-20T02:33:01;12.80;99.90
34833;DHT22;55941;50.800;4.342;2022-12-20T02:35:31;12.80;99.90
34833;DHT22;55941;50.800;4.342;2022-12-20T02:37:59;12.80;99.90
34833;DHT22;55941;50.800;4.342;2022-12-20T02:40:33;12.80;99.90
34833;DHT22;55941;50.800;4.342;2022-12-20T02:43:04;12.80;99.90
34833;DHT22;55941;50.800;4.342;2022-12-20T02:45:55;12.80;99.90
34833;DHT22;55941;50.800;4.342;2022-12-20T02:48:23;13.00;99.90
34833;DHT22;55941;50.800;4.342;2022-12-20T02:50:52;12.90;99.90
34833;DHT22;55941;50.800;4.342;2022-12-20T02:53:19;13.00;99.90
34833;DHT22;55941;50.800;4.342;2022-12-20T02:55:52;12.90;99.90
34833;DHT22;55941;50.800;4.342;2022-12-20T03:01:06;12.90;99.90
34833;DHT22;55941;50.800;4.342;2022-12-20T03:03:34;12.80;99.90
34833;DHT22;55941;50.800;4.342;2022-12-20T03:06:00;12.90;99.90
34833;DHT22;55941;50.800;4.342;2022-12-20T03:08:26;13.00;99.90
34833;DHT22;55941;50.800;4.342;2022-12-20T03:10:53;13.10;99.90
34833;DHT22;55941;50.800;4.342;2022-12-20T03:13:20;13.00;99.90
34833;DHT22;55941;50.800;4.342;2022-12-20T03:15:46;12.90;99.90
34833;DHT22;55941;50.800;4.342;2022-12-20T03:18:11;13.00;99.90
34833;DHT22;55941;50.800;4.342;2022-12-20T03:20:38;12.90;99.90
34833;DHT22;55941;50.800;4.342;2022-12-20T03:23:04;12.90;99.90
34833;DHT22;55941;50.800;4.342;2022-12-20T03:25:29;13.00;99.90
34833;DHT22;55941;50.800;4.342;2022-12-20T03:27:55;13.00;99.90
34833;DHT22;55941;50.800;4.342;2022-12-20T03:30:21;13.00;99.90
34833;DHT22;55941;50.800;4.342;2022-12-20T03:32:47;13.10;99.90
34833;DHT22;55941;50.800;4.342;2022-12-20T03:35:14;13.10;99.90
34833;DHT22;55941;50.800;4.342;2022-12-20T03:37:40;13.00;99.90
34833;DHT22;55941;50.800;4.342;2022-12-20T03:40:06;13.00;99.90
34833;DHT22;55941;50.800;4.342;2022-12-20T03:42:32;13.00;99.90
34833;DHT22;55941;50.800;4.342;2022-12-20T03:44:58;12.80;99.90
34833;DHT22;55941;50.800;4.342;2022-12-20T03:47:23;12.80;99.90
34833;DHT22;55941;50.800;4.342;2022-12-20T03:49:49;12.80;99.90
34833;DHT22;55941;50.800;4.342;2022-12-20T03:52:16;12.80;99.90
34833;DHT22;55941;50.800;4.342;2022-12-20T03:54:42;12.80;99.90
34833;DHT22;55941;50.800;4.342;2022-12-20T03:57:08;12.70;99.90
34833;DHT22;55941;50.800;4.342;2022-12-20T03:59:34;12.80;99.90
34833;DHT22;55941;50.800;4.342;2022-12-20T04:02:01;12.80;99.90
34833;DHT22;55941;50.800;4.342;2022-12-20T04:04:27;12.90;99.90
34833;DHT22;55941;50.800;4.342;2022-12-20T04:06:52;12.80;99.90
34833;DHT22;55941;50.800;4.342;2022-12-20T04:09:18;12.70;99.90
34833;DHT22;55941;50.800;4.342;2022-12-20T04:11:43;12.80;99.90
34833;DHT22;55941;50.800;4.342;2022-12-20T04:14:10;12.90;99.90
34833;DHT22;55941;50.800;4.342;2022-12-20T04:16:36;12.70;99.90
34833;DHT22;55941;50.800;4.342;2022-12-20T04:19:01;12.80;99.90
34833;DHT22;55941;50.800;4.342;2022-12-20T04:21:29;12.80;99.90
34833;DHT22;55941;50.800;4.342;2022-12-20T04:23:56;12.80;99.90
34833;DHT22;55941;50.800;4.342;2022-12-20T04:26:24;12.70;99.90
34833;DHT22;55941;50.800;4.342;2022-12-20T04:28:50;12.80;99.90
34833;DHT22;55941;50.800;4.342;2022-12-20T04:31:15;12.70;99.90
34833;DHT22;55941;50.800;4.342;2022-12-20T04:33:41;12.80;99.90
34833;DHT22;55941;50.800;4.342;2022-12-20T04:36:08;12.80;99.90
34833;DHT22;55941;50.800;4.342;2022-12-20T04:38:34;12.80;99.90
34833;DHT22;55941;50.800;4.342;2022-12-20T04:40:59;12.90;99.90
34833;DHT22;55941;50.800;4.342;2022-12-20T04:43:25;12.80;99.90
34833;DHT22;55941;50.800;4.342;2022-12-20T04:45:52;12.80;99.90
34833;DHT22;55941;50.800;4.342;2022-12-20T04:48:23;12.80;99.90
34833;DHT22;55941;50.800;4.342;2022-12-20T04:50:54;12.90;99.90
34833;DHT22;55941;50.800;4.342;2022-12-20T04:53:21;13.00;99.90
34833;DHT22;55941;50.800;4.342;2022-12-20T04:56:06;13.00;99.90
34833;DHT22;55941;50.800;4.342;2022-12-20T04:58:32;13.00;99.90
34833;DHT22;55941;50.800;4.342;2022-12-20T05:00:58;13.00;99.90
34833;DHT22;55941;50.800;4.342;2022-12-20T05:03:25;13.00;99.90
34833;DHT22;55941;50.800;4.342;2022-12-20T05:05:51;13.10;99.90
34833;DHT22;55941;50.800;4.342;2022-12-20T05:08:17;13.10;99.90
34833;DHT22;55941;50.800;4.342;2022-12-20T05:10:43;13.00;99.90
34833;DHT22;55941;50.800;4.342;2022-12-20T05:13:09;12.90;99.90
34833;DHT22;55941;50.800;4.342;2022-12-20T05:15:35;12.90;99.90
34833;DHT22;55941;50.800;4.342;2022-12-20T05:18:01;12.90;99.90
34833;DHT22;55941;50.800;4.342;2022-12-20T05:20:28;13.00;99.90
34833;DHT22;55941;50.800;4.342;2022-12-20T05:22:54;13.00;99.90
34833;DHT22;55941;50.800;4.342;2022-12-20T05:25:43;13.00;99.90
34833;DHT22;55941;50.800;4.342;2022-12-20T05:28:35;13.00;99.90
34833;DHT22;55941;50.800;4.342;2022-12-20T05:31:01;13.00;99.90
34833;DHT22;55941;50.800;4.342;2022-12-20T05:33:27;13.00;99.90
34833;DHT22;55941;50.800;4.342;2022-12-20T05:35:54;13.10;99.90
34833;DHT22;55941;50.800;4.342;2022-12-20T05:38:20;13.00;99.90
34833;DHT22;55941;50.800;4.342;2022-12-20T05:40:47;13.00;99.90
34833;DHT22;55941;50.800;4.342;2022-12-20T05:43:14;12.90;99.90
34833;DHT22;55941;50.800;4.342;2022-12-20T05:45:43;12.90;99.90
34833;DHT22;55941;50.800;4.342;2022-12-20T05:48:09;13.00;99.90
34833;DHT22;55941;50.800;4.342;2022-12-20T05:50:35;13.00;99.90
34833;DHT22;55941;50.800;4.342;2022-12-20T05:53:01;12.90;99.90
34833;DHT22;55941;50.800;4.342;2022-12-20T05:55:26;12.90;99.90
34833;DHT22;55941;50.800;4.342;2022-12-20T05:57:52;13.00;99.90
34833;DHT22;55941;50.800;4.342;2022-12-20T06:00:19;13.00;99.90
34833;DHT22;55941;50.800;4.342;2022-12-20T06:02:45;13.00;99.90
34833;DHT22;55941;50.800;4.342;2022-12-20T06:05:11;13.10;99.90
34833;DHT22;55941;50.800;4.342;2022-12-20T06:07:37;13.00;99.90
34833;DHT22;55941;50.800;4.342;2022-12-20T06:10:02;13.00;99.90
34833;DHT22;55941;50.800;4.342;2022-12-20T06:12:28;12.90;99.90
34833;DHT22;55941;50.800;4.342;2022-12-20T06:14:54;13.10;99.90
34833;DHT22;55941;50.800;4.342;2022-12-20T06:17:19;13.10;99.90
34833;DHT22;55941;50.800;4.342;2022-12-20T06:19:46;13.10;99.90
34833;DHT22;55941;50.800;4.342;2022-12-20T06:22:12;13.10;99.90
34833;DHT22;55941;50.800;4.342;2022-12-20T06:24:38;13.10;99.90
34833;DHT22;55941;50.800;4.342;2022-12-20T06:27:04;13.20;99.90
34833;DHT22;55941;50.800;4.342;2022-12-20T06:29:32;13.20;99.90
34833;DHT22;55941;50.800;4.342;2022-12-20T06:31:58;13.30;99.90
34833;DHT22;55941;50.800;4.342;2022-12-20T06:34:24;13.30;99.90
34833;DHT22;55941;50.800;4.342;2022-12-20T06:36:50;13.30;99.90
34833;DHT22;55941;50.800;4.342;2022-12-20T06:39:16;13.40;99.90
34833;DHT22;55941;50.800;4.342;2022-12-20T06:41:42;13.40;99.90
34833;DHT22;55941;50.800;4.342;2022-12-20T06:44:07;13.50;99.90
34833;DHT22;55941;50.800;4.342;2022-12-20T06:46:33;13.60;99.90
34833;DHT22;55941;50.800;4.342;2022-12-20T06:48:59;13.50;99.90
34833;DHT22;55941;50.800;4.342;2022-12-20T06:51:24;13.60;99.90
34833;DHT22;55941;50.800;4.342;2022-12-20T06:53:50;13.60;99.90
34833;DHT22;55941;50.800;4.342;2022-12-20T06:56:16;13.60;99.90
34833;DHT22;55941;50.800;4.342;2022-12-20T06:58:42;13.60;99.90
34833;DHT22;55941;50.800;4.342;2022-12-20T07:01:07;13.50;99.90
34833;DHT22;55941;50.800;4.342;2022-12-20T07:03:33;13.40;99.90
34833;DHT22;55941;50.800;4.342;2022-12-20T07:05:59;13.30;99.90
34833;DHT22;55941;50.800;4.342;2022-12-20T07:08:25;13.30;99.90
34833;DHT22;55941;50.800;4.342;2022-12-20T07:10:51;13.20;99.90
34833;DHT22;55941;50.800;4.342;2022-12-20T07:13:17;13.00;99.90
34833;DHT22;55941;50.800;4.342;2022-12-20T07:15:43;12.70;99.90
34833;DHT22;55941;50.800;4.342;2022-12-20T07:18:09;12.60;99.90
34833;DHT22;55941;50.800;4.342;2022-12-20T07:20:35;12.40;99.90
34833;DHT22;55941;50.800;4.342;2022-12-20T07:23:00;12.30;99.90
34833;DHT22;55941;50.800;4.342;2022-12-20T07:25:27;12.20;99.90
34833;DHT22;55941;50.800;4.342;2022-12-20T07:27:52;12.20;99.90
34833;DHT22;55941;50.800;4.342;2022-12-20T07:30:19;12.20;99.90
34833;DHT22;55941;50.800;4.342;2022-12-20T07:32:46;12.10;99.90
34833;DHT22;55941;50.800;4.342;2022-12-20T07:35:13;12.00;99.90
34833;DHT22;55941;50.800;4.342;2022-12-20T07:37:39;11.80;99.90
34833;DHT22;55941;50.800;4.342;2022-12-20T07:40:06;11.70;99.90
34833;DHT22;55941;50.800;4.342;2022-12-20T07:42:32;11.60;99.90
34833;DHT22;55941;50.800;4.342;2022-12-20T07:44:58;11.50;99.90
34833;DHT22;55941;50.800;4.342;2022-12-20T07:47:23;11.50;99.90
34833;DHT22;55941;50.800;4.342;2022-12-20T07:49:50;11.40;99.90
34833;DHT22;55941;50.800;4.342;2022-12-20T07:52:18;11.40;99.90
34833;DHT22;55941;50.800;4.342;2022-12-20T07:54:52;11.40;99.90
34833;DHT22;55941;50.800;4.342;2022-12-20T07:57:24;11.40;99.90
34833;DHT22;55941;50.800;4.342;2022-12-20T07:59:54;11.30;99.90
34833;DHT22;55941;50.800;4.342;2022-12-20T08:02:26;11.40;99.90
34833;DHT22;55941;50.800;4.342;2022-12-20T08:04:53;11.50;99.90
34833;DHT22;55941;50.800;4.342;2022-12-20T08:07:19;11.40;99.90
34833;DHT22;55941;50.800;4.342;2022-12-20T08:09:45;11.40;99.90
34833;DHT22;55941;50.800;4.342;2022-12-20T08:12:13;11.40;99.90
34833;DHT22;55941;50.800;4.342;2022-12-20T08:14:42;11.40;99.90
34833;DHT22;55941;50.800;4.342;2022-12-20T08:17:07;11.40;99.90
34833;DHT22;55941;50.800;4.342;2022-12-20T08:19:33;11.40;99.90
34833;DHT22;55941;50.800;4.342;2022-12-20T08:21:59;11.40;99.90
34833;DHT22;55941;50.800;4.342;2022-12-20T08:24:24;11.40;99.90
34833;DHT22;55941;50.800;4.342;2022-12-20T08:26:50;11.50;99.90
34833;DHT22;55941;50.800;4.342;2022-12-20T08:29:15;11.40;99.90
34833;DHT22;55941;50.800;4.342;2022-12-20T08:31:42;11.60;99.90
34833;DHT22;55941;50.800;4.342;2022-12-20T08:34:08;11.60;99.90
34833;DHT22;55941;50.800;4.342;2022-12-20T08:36:34;11.60;99.90
34833;DHT22;55941;50.800;4.342;2022-12-20T08:39:08;11.80;99.90
34833;DHT22;55941;50.800;4.342;2022-12-20T08:41:35;11.70;99.90
34833;DHT22;55941;50.800;4.342;2022-12-20T08:44:04;11.70;99.90
34833;DHT22;55941;50.800;4.342;2022-12-20T08:46:29;11.70;99.90
34833;DHT22;55941;50.800;4.342;2022-12-20T08:48:55;11.60;99.90
34833;DHT22;55941;50.800;4.342;2022-12-20T08:51:21;11.80;99.90
34833;DHT22;55941;50.800;4.342;2022-12-20T08:53:46;11.70;99.90
34833;DHT22;55941;50.800;4.342;2022-12-20T08:56:14;11.70;99.90
34833;DHT22;55941;50.800;4.342;2022-12-20T08:58:41;11.80;99.90
34833;DHT22;55941;50.800;4.342;2022-12-20T09:01:09;11.70;99.90
34833;DHT22;55941;50.800;4.342;2022-12-20T09:03:36;11.80;99.90
34833;DHT22;55941;50.800;4.342;2022-12-20T09:06:08;11.90;99.90
34833;DHT22;55941;50.800;4.342;2022-12-20T09:08:35;11.70;99.90
34833;DHT22;55941;50.800;4.342;2022-12-20T09:11:25;11.80;99.90
34833;DHT22;55941;50.800;4.342;2022-12-20T09:13:54;11.90;99.90
34833;DHT22;55941;50.800;4.342;2022-12-20T09:16:22;11.90;99.90
34833;DHT22;55941;50.800;4.342;2022-12-20T09:18:49;11.90;99.90
34833;DHT22;55941;50.800;4.342;2022-12-20T09:21:17;12.00;99.90
34833;DHT22;55941;50.800;4.342;2022-12-20T09:23:43;12.10;99.90
34833;DHT22;55941;50.800;4.342;2022-12-20T09:26:12;12.10;99.90
34833;DHT22;55941;50.800;4.342;2022-12-20T09:28:38;12.00;99.90
34833;DHT22;55941;50.800;4.342;2022-12-20T09:31:07;12.10;99.90
34833;DHT22;55941;50.800;4.342;2022-12-20T09:33:34;12.10;99.90
34833;DHT22;55941;50.800;4.342;2022-12-20T09:36:00;12.00;99.90
34833;DHT22;55941;50.800;4.342;2022-12-20T09:38:26;12.10;99.90
34833;DHT22;55941;50.800;4.342;2022-12-20T09:40:56;12.00;99.90
34833;DHT22;55941;50.800;4.342;2022-12-20T09:43:23;11.90;99.90
34833;DHT22;55941;50.800;4.342;2022-12-20T09:45:54;12.00;99.90
34833;DHT22;55941;50.800;4.342;2022-12-20T09:48:39;12.00;99.90
34833;DHT22;55941;50.800;4.342;2022-12-20T09:51:38;12.00;99.90
34833;DHT22;55941;50.800;4.342;2022-12-20T09:59:55;11.70;99.90
34833;DHT22;55941;50.800;4.342;2022-12-20T10:02:23;11.60;99.90
34833;DHT22;55941;50.800;4.342;2022-12-20T10:04:50;11.80;99.90
34833;DHT22;55941;50.800;4.342;2022-12-20T10:07:37;11.60;99.90
34833;DHT22;55941;50.800;4.342;2022-12-20T10:13:15;11.70;99.90
34833;DHT22;55941;50.800;4.342;2022-12-20T10:16:01;11.70;99.90
34833;DHT22;55941;50.800;4.342;2022-12-20T10:21:46;11.80;99.90
34833;DHT22;55941;50.800;4.342;2022-12-20T10:24:18;11.80;99.90
34833;DHT22;55941;50.800;4.342;2022-12-20T10:26:47;11.90;99.90
34833;DHT22;55941;50.800;4.342;2022-12-20T10:29:14;11.80;99.90
34833;DHT22;55941;50.800;4.342;2022-12-20T10:31:40;11.70;99.90
34833;DHT22;55941;50.800;4.342;2022-12-20T10:34:06;11.70;99.90
34833;DHT22;55941;50.800;4.342;2022-12-20T10:36:34;11.70;99.90
34833;DHT22;55941;50.800;4.342;2022-12-20T10:39:02;11.70;99.90
34833;DHT22;55941;50.800;4.342;2022-12-20T10:44:27;11.60;99.90
34833;DHT22;55941;50.800;4.342;2022-12-20T10:46:56;11.60;99.90
34833;DHT22;55941;50.800;4.342;2022-12-20T10:49:34;11.70;99.90
34833;DHT22;55941;50.800;4.342;2022-12-20T10:54:41;11.90;99.90
34833;DHT22;55941;50.800;4.342;2022-12-20T10:57:20;11.80;99.90
34833;DHT22;55941;50.800;4.342;2022-12-20T10:59:58;11.70;99.90
34833;DHT22;55941;50.800;4.342;2022-12-20T11:02:31;11.70;99.90
34833;DHT22;55941;50.800;4.342;2022-12-20T11:05:00;11.60;99.90
34833;DHT22;55941;50.800;4.342;2022-12-20T11:07:29;11.60;99.90
34833;DHT22;55941;50.800;4.342;2022-12-20T11:09:58;11.70;99.90
34833;DHT22;55941;50.800;4.342;2022-12-20T11:12:24;11.70;99.90
34833;DHT22;55941;50.800;4.342;2022-12-20T11:15:09;11.70;99.90
34833;DHT22;55941;50.800;4.342;2022-12-20T11:17:40;11.50;99.90
34833;DHT22;55941;50.800;4.342;2022-12-20T11:28:25;11.70;99.90
34833;DHT22;55941;50.800;4.342;2022-12-20T11:31:17;11.50;99.90
34833;DHT22;55941;50.800;4.342;2022-12-20T11:36:38;11.60;99.90
34833;DHT22;55941;50.800;4.342;2022-12-20T11:39:33;11.60;99.90
34833;DHT22;55941;50.800;4.342;2022-12-20T11:48:36;11.60;99.90
34833;DHT22;55941;50.800;4.342;2022-12-20T11:51:47;11.50;99.90
34833;DHT22;55941;50.800;4.342;2022-12-20T11:54:26;11.40;99.90
34833;DHT22;55941;50.800;4.342;2022-12-20T11:56:59;11.30;99.90
34833;DHT22;55941;50.800;4.342;2022-12-20T11:59:34;11.30;99.90
34833;DHT22;55941;50.800;4.342;2022-12-20T12:02:10;11.40;99.90
34833;DHT22;55941;50.800;4.342;2022-12-20T12:04:48;11.20;99.90
34833;DHT22;55941;50.800;4.342;2022-12-20T12:07:20;11.20;99.90
34833;DHT22;55941;50.800;4.342;2022-12-20T12:10:02;11.20;99.90
34833;DHT22;55941;50.800;4.342;2022-12-20T12:12:45;11.20;99.90
34833;DHT22;55941;50.800;4.342;2022-12-20T12:17:59;11.30;99.90
34833;DHT22;55941;50.800;4.342;2022-12-20T12:26:04;11.20;99.90
34833;DHT22;55941;50.800;4.342;2022-12-20T12:28:32;11.20;99.90
34833;DHT22;55941;50.800;4.342;2022-12-20T12:31:08;11.20;99.90
34833;DHT22;55941;50.800;4.342;2022-12-20T12:33:45;11.10;99.90
34833;DHT22;55941;50.800;4.342;2022-12-20T12:44:40;11.10;99.90
34833;DHT22;55941;50.800;4.342;2022-12-20T12:50:28;11.10;99.90
34833;DHT22;55941;50.800;4.342;2022-12-20T12:52:59;11.10;99.90
34833;DHT22;55941;50.800;4.342;2022-12-20T13:01:00;11.00;99.90
34833;DHT22;55941;50.800;4.342;2022-12-20T13:04:05;11.00;99.90
34833;DHT22;55941;50.800;4.342;2022-12-20T13:11:36;11.00;99.90
34833;DHT22;55941;50.800;4.342;2022-12-20T13:16:50;11.20;99.90
34833;DHT22;55941;50.800;4.342;2022-12-20T13:19:31;11.10;99.90
34833;DHT22;55941;50.800;4.342;2022-12-20T13:25:00;11.20;99.90
34833;DHT22;55941;50.800;4.342;2022-12-20T13:27:31;11.30;99.90
34833;DHT22;55941;50.800;4.342;2022-12-20T13:37:54;11.40;99.90
34833;DHT22;55941;50.800;4.342;2022-12-20T13:43:28;11.50;99.90
34833;DHT22;55941;50.800;4.342;2022-12-20T13:51:18;11.50;99.90
34833;DHT22;55941;50.800;4.342;2022-12-20T13:58:57;11.50;99.90
34833;DHT22;55941;50.800;4.342;2022-12-20T14:01:25;11.40;99.90
34833;DHT22;55941;50.800;4.342;2022-12-20T14:03:51;11.40;99.90
34833;DHT22;55941;50.800;4.342;2022-12-20T14:06:19;11.40;99.90
34833;DHT22;55941;50.800;4.342;2022-12-20T14:08:48;11.40;99.90
34833;DHT22;55941;50.800;4.342;2022-12-20T14:11:21;11.50;99.90
34833;DHT22;55941;50.800;4.342;2022-12-20T14:13:58;11.40;99.90
34833;DHT22;55941;50.800;4.342;2022-12-20T14:16:26;11.40;99.90
34833;DHT22;55941;50.800;4.342;2022-12-20T14:19:06;11.40;99.90
34833;DHT22;55941;50.800;4.342;2022-12-20T14:21:43;11.30;99.90
34833;DHT22;55941;50.800;4.342;2022-12-20T14:24:15;11.30;99.90
34833;DHT22;55941;50.800;4.342;2022-12-20T14:26:44;11.30;99.90
34833;DHT22;55941;50.800;4.342;2022-12-20T14:29:18;11.40;99.90
34833;DHT22;55941;50.800;4.342;2022-12-20T14:31:46;11.40;99.90
34833;DHT22;55941;50.800;4.342;2022-12-20T14:34:20;11.40;99.90
34833;DHT22;55941;50.800;4.342;2022-12-20T14:36:49;11.40;99.90
34833;DHT22;55941;50.800;4.342;2022-12-20T14:39:31;11.40;99.90
34833;DHT22;55941;50.800;4.342;2022-12-20T14:41:59;11.40;99.90
34833;DHT22;55941;50.800;4.342;2022-12-20T14:44:27;11.40;99.90
34833;DHT22;55941;50.800;4.342;2022-12-20T14:47:01;11.30;99.90
34833;DHT22;55941;50.800;4.342;2022-12-20T14:49:34;11.20;99.90
34833;DHT22;55941;50.800;4.342;2022-12-20T14:57:22;11.30;99.90
34833;DHT22;55941;50.800;4.342;2022-12-20T15:02:41;11.20;99.90
34833;DHT22;55941;50.800;4.342;2022-12-20T15:08:31;11.30;99.90
34833;DHT22;55941;50.800;4.342;2022-12-20T15:13:40;11.10;99.90
34833;DHT22;55941;50.800;4.342;2022-12-20T15:16:24;11.10;99.90
34833;DHT22;55941;50.800;4.342;2022-12-20T15:18:55;11.10;99.90
34833;DHT22;55941;50.800;4.342;2022-12-20T15:21:29;11.20;99.90
34833;DHT22;55941;50.800;4.342;2022-12-20T15:23:57;11.20;99.90
34833;DHT22;55941;50.800;4.342;2022-12-20T15:26:25;11.20;99.90
34833;DHT22;55941;50.800;4.342;2022-12-20T15:28:52;11.20;99.90
34833;DHT22;55941;50.800;4.342;2022-12-20T15:31:20;11.20;99.90
34833;DHT22;55941;50.800;4.342;2022-12-20T15:33:46;11.20;99.90
34833;DHT22;55941;50.800;4.342;2022-12-20T15:36:18;11.10;99.90
34833;DHT22;55941;50.800;4.342;2022-12-20T15:38:43;11.40;99.90
34833;DHT22;55941;50.800;4.342;2022-12-20T15:41:23;11.40;99.90
34833;DHT22;55941;50.800;4.342;2022-12-20T15:44:00;11.10;99.90
34833;DHT22;55941;50.800;4.342;2022-12-20T15:46:28;11.10;99.90
34833;DHT22;55941;50.800;4.342;2022-12-20T15:48:54;11.10;99.90
34833;DHT22;55941;50.800;4.342;2022-12-20T15:53:53;11.10;99.90
34833;DHT22;55941;50.800;4.342;2022-12-20T15:56:22;11.20;99.90
34833;DHT22;55941;50.800;4.342;2022-12-20T15:58:48;11.20;99.90
34833;DHT22;55941;50.800;4.342;2022-12-20T16:01:25;11.10;99.90
34833;DHT22;55941;50.800;4.342;2022-12-20T16:03:52;11.10;99.90
34833;DHT22;55941;50.800;4.342;2022-12-20T16:06:18;11.30;99.90
34833;DHT22;55941;50.800;4.342;2022-12-20T16:08:43;11.30;99.90
34833;DHT22;55941;50.800;4.342;2022-12-20T16:11:28;11.20;99.90
34833;DHT22;55941;50.800;4.342;2022-12-20T16:13:56;11.10;99.90
34833;DHT22;55941;50.800;4.342;2022-12-20T16:16:33;11.00;99.90
34833;DHT22;55941;50.800;4.342;2022-12-20T16:19:02;10.90;99.90
34833;DHT22;55941;50.800;4.342;2022-12-20T16:21:40;11.00;99.90
34833;DHT22;55941;50.800;4.342;2022-12-20T16:24:11;11.10;99.90
34833;DHT22;55941;50.800;4.342;2022-12-20T16:26:37;11.10;99.90
34833;DHT22;55941;50.800;4.342;2022-12-20T16:29:03;11.20;99.90
34833;DHT22;55941;50.800;4.342;2022-12-20T16:31:30;11.20;99.90
34833;DHT22;55941;50.800;4.342;2022-12-20T16:33:58;11.20;99.90
34833;DHT22;55941;50.800;4.342;2022-12-20T16:36:25;11.20;99.90
34833;DHT22;55941;50.800;4.342;2022-12-20T16:38:51;11.10;99.90
34833;DHT22;55941;50.800;4.342;2022-12-20T16:41:19;11.20;99.90
34833;DHT22;55941;50.800;4.342;2022-12-20T16:43:48;11.20;99.90
34833;DHT22;55941;50.800;4.342;2022-12-20T16:46:17;11.10;99.90
34833;DHT22;55941;50.800;4.342;2022-12-20T16:48:44;11.10;99.90
34833;DHT22;55941;50.800;4.342;2022-12-20T16:51:37;11.10;99.90
34833;DHT22;55941;50.800;4.342;2022-12-20T16:54:11;11.30;99.90
34833;DHT22;55941;50.800;4.342;2022-12-20T16:56:38;11.40;99.90
34833;DHT22;55941;50.800;4.342;2022-12-20T16:59:04;11.50;99.90
34833;DHT22;55941;50.800;4.342;2022-12-20T17:01:33;11.50;99.90
34833;DHT22;55941;50.800;4.342;2022-12-20T17:03:59;11.40;99.90
34833;DHT22;55941;50.800;4.342;2022-12-20T17:06:25;11.40;99.90
34833;DHT22;55941;50.800;4.342;2022-12-20T17:08:51;11.20;99.90
34833;DHT22;55941;50.800;4.342;2022-12-20T17:11:23;11.20;99.90
34833;DHT22;55941;50.800;4.342;2022-12-20T17:13:51;11.20;99.90
34833;DHT22;55941;50.800;4.342;2022-12-20T17:16:18;11.10;99.90
34833;DHT22;55941;50.800;4.342;2022-12-20T17:18:45;11.10;99.90
34833;DHT22;55941;50.800;4.342;2022-12-20T17:21:25;11.20;99.90
34833;DHT22;55941;50.800;4.342;2022-12-20T17:23:54;11.20;99.90
34833;DHT22;55941;50.800;4.342;2022-12-20T17:26:22;11.20;99.90
34833;DHT22;55941;50.800;4.342;2022-12-20T17:28:50;11.10;99.90
34833;DHT22;55941;50.800;4.342;2022-12-20T17:33:52;11.10;99.90
34833;DHT22;55941;50.800;4.342;2022-12-20T17:36:18;11.10;99.90
34833;DHT22;55941;50.800;4.342;2022-12-20T17:38:44;11.10;99.90
34833;DHT22;55941;50.800;4.342;2022-12-20T17:41:22;11.10;99.90
34833;DHT22;55941;50.800;4.342;2022-12-20T17:43:49;11.10;99.90
34833;DHT22;55941;50.800;4.342;2022-12-20T17:46:15;11.20;99.90
34833;DHT22;55941;50.800;4.342;2022-12-20T17:48:41;11.20;99.90